Terminal Aerodrome Forecast
Issued by NWS Blacksburg, VA

Home | Current Version | Previous Version | Text Only | Print | Product List | Glossary On
Versions: 1 2 3 4 5 6 7 8 9 10 11 12 13 14 15 16 17 18 19 20 21 22 23 24 25 26 27 28 29 30 31 32 33 34 35 36 37 38 39 40 41 42 43 44 45 46 47 48 49
000
FTUS41 KRNK 030529
TAFBLF
TAF
KBLF 030529Z 0306/0406 00000KT 4SM BR VCSH SCT005 BKN020 OVC040
      TEMPO 0309/0313 1/4SM FG OVC002
     FM031500 12004KT 4SM BR VCSH BKN007 OVC020
     FM031900 24010KT P6SM -SHRA VCTS BKN025CB
      TEMPO 0319/0323 2SM -SHRA BR OVC015
     FM040300 26010KT 5SM BR OVC012=

USA.gov is the U.S. government's official web portal to all federal, state and local government web resources and services.